Daytona Beach, FL

2:17 AM EDT on October 23, 2014 (GMT -0400)
ERAU Daytona Beach | Change Station
CLOSE
Current Station
Personal Weather Station
Location: Daytona Beach, FL
Elevation: 26 ft
Nearby Weather Stations

Elev 26 ft 29.18 °N, 81.05 °W | Updated 3 seconds ago

Scattered Clouds
Scattered Clouds
69.3 °F
Feels Like 69.3 °F
N
8.0
Wind Variable Wind from North
Gusts 15.0 mph

Today
High -- | Low -- °F
--% Chance of Precip.
Yesterday
High -- | Low -- °F
Precip. -- in
7:30 AM 6:45 PM
Waning Crescent, 0% visible
Pressure 30.00 in
Visibility 10.0 miles
Clouds Few 3500 ft
Scattered Clouds 15000 ft
Dew Point 59 °F
Humidity 69%
Rainfall 0.00 in
Snow Depth Not available.
UV 0.0 out of 12
Pollen 5.80 out of 12
Air Quality Not available.
Flu Activity Local Activity
METAR KDAB 230553Z 03012KT 10SM FEW035 SCT150 20/13 A3000 RMK AO2 SLP158 T02000128 10217 20194 56008

More Conditions Fewer Conditions

Pressure 30.00 in
Visibility 10.0 miles
Clouds Few 3500 ft
Scattered Clouds 15000 ft
Dew Point 59 °F
Humidity 69%
Rainfall 0.00 in
Snow Depth Not available.
UV 0.0 out of 12
Pollen 5.80 out of 12
Air Quality Not available.
Flu Activity Local Activity
METAR KDAB 230553Z 03012KT 10SM FEW035 SCT150 20/13 A3000 RMK AO2 SLP158 T02000128 10217 20194 56008

More Conditions Fewer Conditions

10-Day Weather Forecast

Almanac

Astronomy

Oct. 23, 2014 Rise Set
Actual Time 7:30 AM EDT 6:45 PM EDT
Civil Twilight 7:06 AM EDT 7:10 PM EDT
Nautical Twilight 6:38 AM EDT 7:37 PM EDT
Astronomical Twilight 6:11 AM EDT 8:05 PM EDT
Moon 7:10 AM EDT 6:46 PM EDT
Length of Visible Light 12h 03m
Length of Day
11h 15m
Tomorrow will be 1m 37s shorter.
Waning Crescent, 0% of the Moon is Illuminated
Today
Waning Crescent
Oct 23
New
Oct 30
First Quarter
Nov 6
Full
Nov 14
Last Quarter

Today's Extremes

State Highs State Lows

Community

WunderPhotos

Upload Photos

1,764,194 photos uploaded!

Nearby

Snow Depth

Station Depth Elevation
No new snow has been reported.

Earthquake Activity

City Distance Mag. Time & Date
No recent earthquake activity has been reported nearby.
Minimum magnitude displayed is 2.5.

Coastal Water Temperatures

Place Temperature
Trident Pier, FL 80.1 °F
Mayport (Bar Pilots Dock), FL 75.9 °F
Fernandina Beach, FL 75.0 °F
McKay Bay Entrance, FL 81.0 °F

Nearby Weather Stations